Charlevoix, MI

4:06 AM EDT on May 24, 2017 (GMT -0400)
Charlevoix Municipal

Weather History for KCVX - October, 2011

Change the Weather History Date:

Monday, October 17, 2011

  Actual Average Record
Temperature  
Mean Temperature 50 °F -  
Max Temperature 51 °F 60 °F 74 °F (2012)
Min Temperature 48 °F 43 °F 32 °F (2008)
Degree Days  
Heating Degree Days 16    
Moisture  
Dew Point 33 °F    
Average Humidity 55    
Maximum Humidity 62    
Minimum Humidity 43    
Precipitation  
Precipitation 0.00 in - - ()
Sea Level Pressure  
Sea Level Pressure 29.57 in    
Wind  
Wind Speed 25 mph (West)    
Max Wind Speed 33 mph    
Max Gust Speed 44 mph    
Visibility 10 miles    
Events      
Averages and records for this station are not official NWS values.
T = Trace of Precipitation, MM = Missing Value Source: NWS Daily Summary

Daily Weather History Graph

Daily Weather History Graph

Search for Another Location

Airport or City:

Trip Planner

Search our weather history database for the weather conditions in past years. The results will help you decide how hot, cold, wet, or windy it might be!

Date:

Astronomy

Oct. 17, 2011 Rise Set
Actual Time 7:59 AM EDT 6:52 PM EDT
Civil Twilight 7:29 AM EDT 7:22 PM EDT
Nautical Twilight 6:55 AM EDT 7:56 PM EDT
Astronomical Twilight 6:21 AM EDT 8:30 PM EDT
Moon 10:21 PM EDT (10/17) 1:17 PM EDT (10/17)
Length of Visible Light 11h 53m
Length of Day
10h 53m
Waning Gibbous, 74% of the Moon is Illuminated
Oct 17
Waning Gibbous
Oct 19
Last Quarter
Oct 26
New
Nov 2
First Quarter
Nov 10
Full

Hourly Weather History & Observations

Time (EDT) Temp. Dew Point Humidity Pressure Visibility Wind Dir Wind Speed Gust Speed Precip Events Conditions
12:14 AM 48.2 °F 26.6 °F 43% 29.57 in 10.0 mi West 24.2 mph 29.9 mph N/A   Overcast
12:34 AM 48.2 °F 30.2 °F 50% 29.57 in 10.0 mi West 21.9 mph 29.9 mph N/A   Overcast
12:55 AM 48.2 °F 30.2 °F 50% 29.56 in 10.0 mi West 27.6 mph 35.7 mph N/A   Scattered Clouds
1:14 AM 48.2 °F 32.0 °F 54% 29.56 in 10.0 mi West 28.8 mph 35.7 mph N/A   Clear
1:35 AM 48.2 °F 28.4 °F 46% 29.55 in 10.0 mi West 28.8 mph 39.1 mph N/A   Clear
2:14 AM 48.2 °F 30.2 °F 50% 29.54 in 10.0 mi West 29.9 mph 41.4 mph N/A   Clear
2:35 AM 48.2 °F 30.2 °F 50% 29.54 in 10.0 mi West 33.4 mph 41.4 mph N/A   Clear
2:54 AM 48.2 °F 30.2 °F 50% 29.54 in 10.0 mi West 29.9 mph 41.4 mph N/A   Clear
3:35 AM 48.2 °F 30.2 °F 50% 29.53 in 10.0 mi West 29.9 mph 39.1 mph N/A   Scattered Clouds
3:54 AM 50.0 °F 30.2 °F 47% 29.53 in 10.0 mi West 28.8 mph 36.8 mph N/A   Mostly Cloudy
4:14 AM 48.2 °F 30.2 °F 50% 29.53 in 10.0 mi West 26.5 mph 36.8 mph N/A   Mostly Cloudy
4:34 AM 48.2 °F 32.0 °F 54% 29.53 in 10.0 mi West 27.6 mph 35.7 mph N/A   Mostly Cloudy
4:54 AM 48.2 °F 32.0 °F 54% 29.53 in 10.0 mi West 29.9 mph 38.0 mph N/A   Overcast
5:15 AM 50.0 °F 32.0 °F 50% 29.53 in 10.0 mi West 25.3 mph 35.7 mph N/A   Overcast
5:34 AM 50.0 °F 32.0 °F 50% 29.53 in 10.0 mi West 31.1 mph 39.1 mph N/A   Overcast
5:54 AM 48.2 °F 32.0 °F 54% 29.53 in 10.0 mi West 27.6 mph 36.8 mph N/A   Overcast
6:15 AM 48.2 °F 32.0 °F 54% 29.52 in 10.0 mi West 27.6 mph 36.8 mph N/A   Overcast
6:34 AM 48.2 °F 33.8 °F 58% 29.52 in 10.0 mi WSW 19.6 mph 32.2 mph N/A   Overcast
6:55 AM 48.2 °F 33.8 °F 58% 29.52 in 10.0 mi West 23.0 mph 34.5 mph N/A   Overcast
7:14 AM 48.2 °F 33.8 °F 58% 29.52 in 10.0 mi WSW 26.5 mph 34.5 mph N/A   Overcast
7:34 AM 48.2 °F 33.8 °F 58% 29.52 in 10.0 mi West 23.0 mph 33.4 mph N/A   Overcast
7:55 AM 48.2 °F 33.8 °F 58% 29.52 in 10.0 mi West 29.9 mph 38.0 mph N/A   Overcast
8:14 AM 48.2 °F 33.8 °F 58% 29.52 in 10.0 mi West 25.3 mph 36.8 mph N/A   Overcast
8:34 AM 48.2 °F 33.8 °F 58% 29.52 in 10.0 mi West 26.5 mph 43.7 mph N/A   Overcast
8:55 AM 48.2 °F 33.8 °F 58% 29.53 in 10.0 mi West 24.2 mph 35.7 mph N/A   Overcast
9:14 AM 48.2 °F 33.8 °F 58% 29.54 in 10.0 mi West 27.6 mph 34.5 mph N/A   Overcast
9:34 AM 48.2 °F 33.8 °F 58% 29.53 in 10.0 mi West 26.5 mph 36.8 mph N/A   Overcast
9:55 AM 48.2 °F 33.8 °F 58% 29.54 in 10.0 mi West 29.9 mph 35.7 mph N/A   Overcast
10:14 AM 48.2 °F 33.8 °F 58% 29.54 in 10.0 mi West 26.5 mph 33.4 mph N/A   Overcast
10:34 AM 48.2 °F 33.8 °F 58% 29.55 in 10.0 mi West 28.8 mph 35.7 mph N/A   Overcast
11:14 AM 50.0 °F 35.6 °F 58% 29.56 in 10.0 mi West 26.5 mph 40.3 mph N/A   Overcast
11:34 AM 48.2 °F 33.8 °F 58% 29.56 in 10.0 mi West 26.5 mph 34.5 mph N/A   Overcast
11:55 AM 50.0 °F 33.8 °F 54% 29.56 in 10.0 mi West 28.8 mph 36.8 mph N/A   Overcast
12:14 PM 48.2 °F 33.8 °F 58% 29.57 in 10.0 mi West 25.3 mph 33.4 mph N/A   Overcast
12:35 PM 50.0 °F 33.8 °F 54% 29.57 in 10.0 mi WSW 26.5 mph 33.4 mph N/A   Overcast
12:55 PM 48.2 °F 33.8 °F 58% 29.57 in 10.0 mi West 26.5 mph 35.7 mph N/A   Overcast
1:14 PM 48.2 °F 33.8 °F 58% 29.58 in 10.0 mi West 24.2 mph 32.2 mph N/A   Overcast
1:35 PM 50.0 °F 33.8 °F 54% 29.57 in 10.0 mi West 28.8 mph 38.0 mph N/A   Overcast
1:54 PM 50.0 °F 33.8 °F 54% 29.57 in 10.0 mi West 23.0 mph 32.2 mph N/A   Overcast
2:01 PM 50.0 °F 33.8 °F 54% 29.58 in 10.0 mi West 27.6 mph 33.4 mph N/A   Overcast
2:35 PM 50.0 °F 33.8 °F 54% 29.58 in - West 24.2 mph - N/A   Unknown
2:54 PM 51.8 °F 33.8 °F 50% 29.57 in 10.0 mi West 23.0 mph 27.6 mph N/A   Overcast
3:15 PM 50.0 °F 33.8 °F 54% 29.58 in 10.0 mi WSW 19.6 mph 29.9 mph N/A   Overcast
3:34 PM 50.0 °F 35.6 °F 58% 29.58 in 10.0 mi WSW 18.4 mph 24.2 mph N/A   Overcast
3:54 PM 51.8 °F 35.6 °F 54% 29.59 in 10.0 mi West 21.9 mph 28.8 mph N/A   Overcast
4:15 PM 50.0 °F 35.6 °F 58% 29.60 in 10.0 mi WSW 19.6 mph 31.1 mph N/A   Overcast
4:34 PM 50.0 °F 35.6 °F 58% 29.61 in 10.0 mi WSW 16.1 mph 28.8 mph N/A   Overcast
4:54 PM 50.0 °F 35.6 °F 58% 29.61 in 10.0 mi West 15.0 mph 25.3 mph N/A   Overcast
5:15 PM 50.0 °F 35.6 °F 58% 29.62 in 10.0 mi West 20.7 mph 24.2 mph N/A   Overcast
5:34 PM 51.8 °F 35.6 °F 54% 29.62 in 10.0 mi West 21.9 mph 28.8 mph N/A   Overcast
5:54 PM 50.0 °F 35.6 °F 58% 29.63 in 10.0 mi West 17.3 mph 27.6 mph N/A   Overcast
6:15 PM 50.0 °F 37.4 °F 62% 29.64 in 10.0 mi WNW 12.7 mph - N/A   Overcast
6:34 PM 50.0 °F 35.6 °F 58% 29.64 in 10.0 mi WNW 13.8 mph 20.7 mph N/A   Overcast
6:54 PM 50.0 °F 37.4 °F 62% 29.64 in 10.0 mi West 16.1 mph 21.9 mph N/A   Overcast
7:15 PM 50.0 °F 35.6 °F 58% 29.65 in 10.0 mi WNW 17.3 mph 21.9 mph N/A   Overcast
7:34 PM 50.0 °F 35.6 °F 58% 29.66 in 10.0 mi WNW 15.0 mph 24.2 mph N/A   Overcast
7:55 PM 50.0 °F 35.6 °F 58% 29.66 in 10.0 mi WNW 20.7 mph 27.6 mph N/A   Overcast
8:14 PM 50.0 °F 35.6 °F 58% 29.67 in 10.0 mi WNW 13.8 mph 24.2 mph N/A   Overcast
8:34 PM 50.0 °F 35.6 °F 58% 29.67 in 10.0 mi WNW 19.6 mph 25.3 mph N/A   Overcast
8:55 PM 50.0 °F 35.6 °F 58% 29.67 in 10.0 mi WNW 13.8 mph 23.0 mph N/A   Overcast
9:14 PM 50.0 °F 35.6 °F 58% 29.67 in 10.0 mi WNW 20.7 mph 26.5 mph N/A   Overcast
9:34 PM 50.0 °F 35.6 °F 58% 29.68 in 10.0 mi WNW 13.8 mph 19.6 mph N/A   Overcast
9:55 PM 50.0 °F 35.6 °F 58% 29.69 in 10.0 mi WNW 18.4 mph - N/A   Overcast
10:14 PM 50.0 °F 35.6 °F 58% 29.69 in 10.0 mi WNW 13.8 mph 18.4 mph N/A   Overcast
10:34 PM 50.0 °F 35.6 °F 58% 29.69 in 10.0 mi WNW 15.0 mph 19.6 mph N/A   Overcast
11:14 PM 48.2 °F 35.6 °F 62% 29.69 in 10.0 mi WNW 11.5 mph 19.6 mph N/A   Overcast
11:35 PM 48.2 °F 35.6 °F 62% 29.70 in 10.0 mi WNW 15.0 mph 26.5 mph N/A   Overcast
11:54 PM 48.2 °F 35.6 °F 62% 29.70 in 10.0 mi WNW 15.0 mph 25.3 mph N/A   Overcast